createdAt,value
2023-03-08T00:01:36.265Z,-0.06
2023-03-08T00:04:02.631Z,0.09
2023-03-08T00:06:29.368Z,0.22
2023-03-08T00:08:59.651Z,0.29
2023-03-08T00:11:26.595Z,0.39
2023-03-08T00:13:52.889Z,0.14
2023-03-08T00:16:19.238Z,0.06
2023-03-08T00:18:45.602Z,-0.12
2023-03-08T00:21:13.250Z,-0.26
2023-03-08T00:23:39.862Z,-0.04
2023-03-08T00:26:06.249Z,-0.24
2023-03-08T00:28:32.600Z,-0.07
2023-03-08T00:31:17.192Z,-0.08
2023-03-08T00:33:43.566Z,-0.18
2023-03-08T00:36:13.270Z,-0.04
2023-03-08T00:38:39.609Z,-0.05
2023-03-08T00:41:06.247Z,-0.05
2023-03-08T00:43:32.635Z,-0.13
2023-03-08T00:45:58.967Z,0.12
2023-03-08T00:48:25.305Z,-0.06
2023-03-08T00:50:51.683Z,0.29
2023-03-08T00:53:18.219Z,0.07
2023-03-08T00:55:51.515Z,-0.02
2023-03-08T00:58:17.845Z,-0.03
2023-03-08T01:00:44.675Z,0.02
2023-03-08T01:03:11.033Z,0.16
2023-03-08T01:05:56.578Z,-0.16
2023-03-08T01:08:24.172Z,-0.13
2023-03-08T01:10:51.898Z,-0.06
2023-03-08T01:13:18.963Z,-0.27
2023-03-08T01:15:45.580Z,-0.34
2023-03-08T01:18:11.979Z,-0.14
2023-03-08T01:20:38.278Z,-0.17
2023-03-08T01:23:04.884Z,-0.26
2023-03-08T01:25:31.446Z,0.00
2023-03-08T01:27:58.106Z,-0.06
2023-03-08T01:30:24.608Z,-0.21
2023-03-08T01:32:51.006Z,0.08
2023-03-08T01:35:17.704Z,-0.25
2023-03-08T01:37:43.984Z,-0.09
2023-03-08T01:40:12.202Z,-0.14
2023-03-08T01:42:38.782Z,0.07
2023-03-08T01:45:06.319Z,-0.11
2023-03-08T01:47:33.312Z,-0.21
2023-03-08T01:50:01.517Z,-0.15
2023-03-08T01:52:37.149Z,-0.17
2023-03-08T01:55:07.720Z,-0.21
2023-03-08T01:57:49.553Z,-0.28
2023-03-08T02:00:21.358Z,-0.02
2023-03-08T02:03:07.949Z,-0.21
2023-03-08T02:05:37.125Z,-0.30
2023-03-08T02:08:03.474Z,-0.16
2023-03-08T02:10:29.863Z,0.01
2023-03-08T02:12:56.371Z,-0.20
2023-03-08T02:15:22.779Z,0.10
2023-03-08T02:17:49.171Z,-0.12
2023-03-08T02:20:21.668Z,-0.05
2023-03-08T02:22:51.784Z,0.09
2023-03-08T02:25:19.392Z,0.02
2023-03-08T02:27:45.938Z,0.11
2023-03-08T02:30:14.099Z,0.04
2023-03-08T02:32:40.597Z,0.14
2023-03-08T02:35:07.172Z,0.02
2023-03-08T02:37:33.789Z,0.29
2023-03-08T02:40:00.112Z,0.30
2023-03-08T02:42:26.399Z,0.31
2023-03-08T02:44:53.158Z,0.38
2023-03-08T02:47:22.832Z,0.17
2023-03-08T02:49:49.160Z,0.26
2023-03-08T02:52:15.526Z,0.26
2023-03-08T02:54:41.816Z,0.44
2023-03-08T02:57:08.164Z,0.59
2023-03-08T02:59:34.479Z,0.79
2023-03-08T03:02:00.753Z,0.65
2023-03-08T03:04:30.932Z,0.62
2023-03-08T03:06:57.570Z,0.67
2023-03-08T03:09:23.874Z,0.60
2023-03-08T03:11:50.187Z,0.69
2023-03-08T03:14:16.497Z,0.56
2023-03-08T03:16:42.833Z,0.57
2023-03-08T03:19:09.223Z,0.60
2023-03-08T03:21:35.550Z,0.70
2023-03-08T03:24:01.828Z,0.69
2023-03-08T03:26:28.115Z,0.52
2023-03-08T03:28:58.369Z,0.52
2023-03-08T03:31:25.751Z,0.79
2023-03-08T03:33:52.539Z,0.51
2023-03-08T03:36:20.121Z,0.45
2023-03-08T03:38:46.498Z,0.56
2023-03-08T03:41:17.374Z,0.46
2023-03-08T03:43:43.763Z,0.47
2023-03-08T03:46:14.334Z,0.29
2023-03-08T03:48:40.706Z,0.47
2023-03-08T03:51:08.139Z,0.58
2023-03-08T03:53:35.550Z,0.45
2023-03-08T03:56:06.682Z,0.51
2023-03-08T03:58:33.378Z,0.47
2023-03-08T04:01:00.000Z,0.43
2023-03-08T04:03:26.852Z,0.50
2023-03-08T04:05:53.357Z,0.50
2023-03-08T04:08:19.642Z,0.50
2023-03-08T04:10:45.963Z,0.55
2023-03-08T04:13:12.428Z,0.45
2023-03-08T04:15:38.756Z,0.48
2023-03-08T04:18:05.076Z,0.59
2023-03-08T04:20:31.369Z,0.29
2023-03-08T04:22:57.664Z,0.46
2023-03-08T04:25:23.966Z,0.49
2023-03-08T04:27:50.271Z,0.60
2023-03-08T04:30:16.614Z,0.44
2023-03-08T04:32:42.959Z,0.77
2023-03-08T04:35:09.392Z,0.85
2023-03-08T04:37:37.010Z,0.43
2023-03-08T04:40:05.805Z,0.42
2023-03-08T04:42:32.098Z,0.60
2023-03-08T04:44:58.375Z,0.81
2023-03-08T04:47:24.687Z,0.62
2023-03-08T04:49:50.998Z,0.67
2023-03-08T04:52:17.326Z,0.65
2023-03-08T04:54:43.666Z,0.66
2023-03-08T04:57:09.983Z,0.55
2023-03-08T04:59:36.478Z,0.71
2023-03-08T05:02:03.884Z,0.69
2023-03-08T05:04:30.222Z,0.89
2023-03-08T05:06:56.520Z,0.59
2023-03-08T05:09:22.837Z,0.73
2023-03-08T05:11:49.132Z,0.71
2023-03-08T05:14:15.400Z,0.60
2023-03-08T05:16:41.770Z,0.82
2023-03-08T05:19:08.142Z,0.77
2023-03-08T05:21:34.477Z,0.85
2023-03-08T05:24:00.841Z,0.82
2023-03-08T05:26:28.545Z,0.75
2023-03-08T05:28:54.873Z,0.78
2023-03-08T05:31:21.987Z,0.65
2023-03-08T05:33:50.858Z,0.81
2023-03-08T05:36:17.945Z,0.70
2023-03-08T05:38:44.430Z,0.81
2023-03-08T05:41:17.166Z,1.17
2023-03-08T05:43:43.495Z,1.08
2023-03-08T05:46:14.669Z,1.02
2023-03-08T05:48:41.232Z,0.81
2023-03-08T05:51:08.710Z,0.88
2023-03-08T05:53:35.391Z,0.69
2023-03-08T05:56:09.527Z,0.84
2023-03-08T05:58:36.511Z,0.73
2023-03-08T06:01:10.027Z,0.79
2023-03-08T06:03:36.516Z,0.56
2023-03-08T06:06:02.917Z,0.74
2023-03-08T06:08:29.204Z,0.70
2023-03-08T06:10:55.491Z,0.67
2023-03-08T06:13:21.785Z,0.62
2023-03-08T06:15:48.090Z,0.77
2023-03-08T06:18:14.372Z,1.01
2023-03-08T06:20:40.644Z,0.82
2023-03-08T06:23:06.960Z,0.99
2023-03-08T06:25:33.237Z,1.03
2023-03-08T06:27:59.504Z,1.15
2023-03-08T06:30:25.878Z,1.24
2023-03-08T06:32:52.159Z,1.05
2023-03-08T06:35:18.441Z,0.99
2023-03-08T06:37:44.760Z,1.16
2023-03-08T06:40:12.870Z,1.22
2023-03-08T06:42:41.840Z,1.38
2023-03-08T06:45:09.016Z,1.21
2023-03-08T06:47:35.375Z,1.06
2023-03-08T06:50:01.750Z,1.34
2023-03-08T06:52:28.182Z,1.32
2023-03-08T06:54:54.475Z,1.32
2023-03-08T06:57:20.777Z,1.35
2023-03-08T06:59:47.178Z,1.38
2023-03-08T07:02:13.472Z,1.23
2023-03-08T07:04:39.844Z,1.51
2023-03-08T07:07:07.844Z,1.55
2023-03-08T07:09:34.233Z,1.68
2023-03-08T07:12:00.512Z,1.73
2023-03-08T07:14:26.825Z,1.71
2023-03-08T07:16:53.118Z,1.76
2023-03-08T07:19:19.477Z,1.59
2023-03-08T07:21:45.758Z,1.64
2023-03-08T07:24:12.060Z,1.61
2023-03-08T07:26:38.564Z,1.70
2023-03-08T07:29:05.372Z,1.77
2023-03-08T07:31:32.448Z,1.63
2023-03-08T07:33:58.739Z,1.65
2023-03-08T07:36:25.086Z,1.40
2023-03-08T07:38:51.521Z,1.38
2023-03-08T07:41:17.929Z,1.67
2023-03-08T07:43:44.428Z,1.62
2023-03-08T07:46:10.794Z,1.58
2023-03-08T07:48:37.076Z,1.71
2023-03-08T07:51:09.478Z,1.82
2023-03-08T07:53:36.635Z,1.79
2023-03-08T07:56:03.245Z,1.75
2023-03-08T07:58:29.719Z,1.62
2023-03-08T08:00:56.039Z,1.93
2023-03-08T08:03:22.509Z,2.08
2023-03-08T08:05:48.854Z,1.88
2023-03-08T08:08:15.186Z,1.98
2023-03-08T08:10:41.826Z,2.04
2023-03-08T08:13:08.448Z,1.97
2023-03-08T08:15:34.891Z,2.16
2023-03-08T08:18:01.220Z,1.75
2023-03-08T08:20:27.802Z,2.03
2023-03-08T08:22:54.313Z,1.99
2023-03-08T08:25:21.020Z,2.24
2023-03-08T08:27:49.522Z,2.10
2023-03-08T08:30:15.882Z,2.08
2023-03-08T08:32:42.230Z,2.30
2023-03-08T08:35:08.834Z,2.32
2023-03-08T08:37:35.151Z,2.34
2023-03-08T08:40:01.546Z,2.56
2023-03-08T08:42:27.907Z,2.56
2023-03-08T08:44:54.534Z,2.47
2023-03-08T08:47:21.048Z,2.56
2023-03-08T08:49:47.388Z,2.41
2023-03-08T08:52:13.699Z,2.63
2023-03-08T08:54:40.190Z,2.64
2023-03-08T08:57:06.958Z,2.72
2023-03-08T08:59:33.516Z,2.79
2023-03-08T09:01:59.866Z,2.39
2023-03-08T09:04:26.303Z,2.67
2023-03-08T09:06:53.537Z,2.59
2023-03-08T09:09:20.254Z,2.55
2023-03-08T09:11:55.021Z,2.48
2023-03-08T09:14:22.070Z,2.62
2023-03-08T09:16:48.457Z,2.39
2023-03-08T09:19:15.461Z,2.36
2023-03-08T09:21:41.838Z,2.45
2023-03-08T09:24:10.339Z,2.46
2023-03-08T09:26:36.689Z,2.48
2023-03-08T09:29:05.340Z,2.45
2023-03-08T09:31:32.325Z,2.18
2023-03-08T09:33:59.953Z,2.47
2023-03-08T09:36:28.490Z,2.50
2023-03-08T09:38:54.842Z,2.72
2023-03-08T09:41:27.244Z,2.66
2023-03-08T09:43:56.533Z,2.72
2023-03-08T09:46:27.296Z,2.83
2023-03-08T09:48:54.578Z,2.72
2023-03-08T09:51:22.952Z,2.81
2023-03-08T09:53:54.587Z,2.80
2023-03-08T09:56:29.429Z,2.76
2023-03-08T09:58:59.567Z,2.61
2023-03-08T10:01:36.204Z,2.87
2023-03-08T10:04:02.572Z,3.04
2023-03-08T10:06:34.233Z,3.13
2023-03-08T10:09:12.247Z,3.07
2023-03-08T10:11:44.923Z,3.14
2023-03-08T10:14:23.679Z,3.35
2023-03-08T10:16:52.388Z,3.00
2023-03-08T10:19:22.136Z,2.95
2023-03-08T10:21:48.963Z,3.17
2023-03-08T10:24:15.255Z,3.01
2023-03-08T10:26:43.193Z,3.26
2023-03-08T10:29:13.423Z,3.21
2023-03-08T10:31:40.038Z,3.26
2023-03-08T10:34:12.908Z,3.46
2023-03-08T10:36:51.500Z,3.73
2023-03-08T10:39:18.064Z,3.67
2023-03-08T10:41:53.056Z,3.64
2023-03-08T10:44:40.060Z,4.02
2023-03-08T10:47:33.103Z,4.04
2023-03-08T10:50:05.312Z,3.93
2023-03-08T10:52:31.647Z,3.91
2023-03-08T10:55:05.824Z,4.18
2023-03-08T10:57:33.023Z,4.19
2023-03-08T11:00:07.564Z,4.16
2023-03-08T11:02:33.876Z,4.14
2023-03-08T11:05:00.257Z,4.27
2023-03-08T11:07:29.070Z,4.37
2023-03-08T11:10:15.832Z,4.37
2023-03-08T11:12:42.559Z,4.44
2023-03-08T11:15:13.134Z,4.39
2023-03-08T11:17:41.155Z,4.42
2023-03-08T11:20:19.884Z,4.37
2023-03-08T11:22:54.995Z,4.53
2023-03-08T11:25:29.532Z,4.70
2023-03-08T11:28:02.247Z,4.69
2023-03-08T11:30:28.585Z,4.54
2023-03-08T11:33:04.809Z,4.37
2023-03-08T11:35:51.110Z,4.42
2023-03-08T11:38:19.317Z,4.52
2023-03-08T11:41:00.582Z,4.69
2023-03-08T11:43:26.914Z,4.64
2023-03-08T11:46:11.986Z,4.75
2023-03-08T11:48:41.407Z,4.73
2023-03-08T11:51:10.828Z,4.66
2023-03-08T11:53:44.071Z,4.77
2023-03-08T11:56:18.951Z,4.76
2023-03-08T11:59:11.619Z,4.54
2023-03-08T12:01:41.636Z,4.45
2023-03-08T12:04:11.805Z,4.25
2023-03-08T12:06:38.272Z,4.59
2023-03-08T12:09:07.914Z,4.68
2023-03-08T12:11:40.553Z,4.54
2023-03-08T12:14:09.868Z,4.60
2023-03-08T12:16:40.668Z,4.72
2023-03-08T12:19:19.348Z,4.68
2023-03-08T12:21:52.360Z,4.76
2023-03-08T12:24:18.644Z,4.46
2023-03-08T12:26:52.351Z,4.49
2023-03-08T12:29:25.450Z,4.86
2023-03-08T12:31:52.291Z,4.83
2023-03-08T12:34:27.343Z,4.77
2023-03-08T12:36:54.213Z,4.93
2023-03-08T12:39:26.782Z,4.89
2023-03-08T12:41:57.403Z,4.88
2023-03-08T12:44:24.900Z,4.85
2023-03-08T12:47:03.005Z,5.02
2023-03-08T12:49:35.667Z,4.97
2023-03-08T12:52:04.091Z,5.00
2023-03-08T12:54:33.634Z,4.83
2023-03-08T12:57:00.399Z,5.06
2023-03-08T12:59:29.395Z,5.02
2023-03-08T13:01:55.656Z,5.05
2023-03-08T13:04:39.633Z,5.15
2023-03-08T13:07:18.731Z,5.07
2023-03-08T13:09:51.102Z,5.08
2023-03-08T13:12:17.617Z,5.04
2023-03-08T13:14:58.517Z,4.93
2023-03-08T13:17:27.807Z,5.04
2023-03-08T13:19:54.588Z,5.06
2023-03-08T13:22:25.172Z,4.96
2023-03-08T13:24:56.750Z,4.92
2023-03-08T13:27:41.988Z,5.09
2023-03-08T13:30:23.733Z,5.09
2023-03-08T13:32:50.185Z,5.08
2023-03-08T13:35:17.755Z,5.04
2023-03-08T13:37:51.469Z,5.13
2023-03-08T13:40:19.412Z,5.05
2023-03-08T13:43:02.759Z,4.97
2023-03-08T13:45:29.268Z,4.90
2023-03-08T13:47:57.101Z,4.82
2023-03-08T13:50:29.465Z,4.83
2023-03-08T13:52:56.058Z,4.83
2023-03-08T13:55:32.786Z,4.64
2023-03-08T13:57:59.488Z,4.62
2023-03-08T14:00:25.933Z,4.70
2023-03-08T14:02:52.574Z,4.61
2023-03-08T14:05:21.056Z,4.75
2023-03-08T14:07:55.725Z,4.72
2023-03-08T14:10:27.294Z,4.68
2023-03-08T14:12:53.883Z,4.75
2023-03-08T14:15:21.582Z,4.81
2023-03-08T14:17:49.566Z,4.77
2023-03-08T14:20:19.509Z,4.92
2023-03-08T14:22:49.792Z,4.84
2023-03-08T14:25:30.006Z,4.68
2023-03-08T14:27:56.841Z,4.84
2023-03-08T14:30:27.557Z,4.79
2023-03-08T14:33:28.348Z,4.87
2023-03-08T14:36:00.177Z,4.87
2023-03-08T14:38:31.410Z,4.86
2023-03-08T14:41:00.500Z,4.87
2023-03-08T14:43:27.330Z,4.77
2023-03-08T14:45:59.392Z,4.65
2023-03-08T14:48:29.130Z,4.78
2023-03-08T14:51:02.041Z,4.83
2023-03-08T14:53:29.354Z,4.84
2023-03-08T14:55:56.444Z,4.77
2023-03-08T14:58:25.400Z,4.77
2023-03-08T15:00:52.865Z,4.75
2023-03-08T15:03:19.256Z,4.73
2023-03-08T15:05:48.541Z,4.82
2023-03-08T15:08:16.472Z,4.73
2023-03-08T15:10:43.487Z,4.80
2023-03-08T15:13:13.111Z,4.62
2023-03-08T15:15:39.448Z,4.62
2023-03-08T15:18:05.850Z,4.49
2023-03-08T15:20:32.401Z,4.77
2023-03-08T15:23:00.487Z,4.57
2023-03-08T15:25:45.142Z,4.65
2023-03-08T15:28:13.941Z,4.54
2023-03-08T15:30:40.236Z,4.60
2023-03-08T15:33:06.667Z,4.60
2023-03-08T15:35:33.063Z,4.51
2023-03-08T15:37:59.363Z,4.53
2023-03-08T15:40:28.571Z,4.58
2023-03-08T15:42:55.371Z,4.54
2023-03-08T15:45:22.077Z,4.26
2023-03-08T15:47:58.737Z,4.39
2023-03-08T15:50:25.896Z,4.31
2023-03-08T15:52:52.699Z,3.86
2023-03-08T15:55:19.077Z,3.85
2023-03-08T15:57:45.463Z,3.99
2023-03-08T16:00:12.873Z,3.81
2023-03-08T16:02:40.016Z,3.63
2023-03-08T16:05:07.200Z,3.62
2023-03-08T16:07:33.689Z,3.72
2023-03-08T16:10:00.803Z,3.74
2023-03-08T16:12:27.110Z,3.56
2023-03-08T16:14:57.293Z,3.47
2023-03-08T16:17:25.924Z,3.61
2023-03-08T16:19:52.852Z,3.55
2023-03-08T16:22:19.505Z,3.46
2023-03-08T16:24:45.889Z,3.39
2023-03-08T16:27:12.227Z,3.19
2023-03-08T16:29:38.594Z,3.40
2023-03-08T16:32:05.188Z,3.32
2023-03-08T16:34:31.626Z,3.30
2023-03-08T16:36:58.078Z,3.12
2023-03-08T16:39:25.153Z,3.25
2023-03-08T16:41:51.771Z,3.15
2023-03-08T16:44:22.276Z,3.13
2023-03-08T16:46:48.906Z,3.18
2023-03-08T16:49:15.996Z,3.28
2023-03-08T16:51:43.054Z,3.02
2023-03-08T16:54:13.260Z,2.93
2023-03-08T16:56:40.704Z,2.84
2023-03-08T16:59:07.055Z,2.99
2023-03-08T17:01:34.571Z,2.90
2023-03-08T17:04:01.125Z,2.97
2023-03-08T17:06:28.635Z,2.90
2023-03-08T17:08:55.195Z,2.86
2023-03-08T17:11:23.502Z,2.79
2023-03-08T17:13:51.109Z,2.80
2023-03-08T17:16:18.753Z,2.92
2023-03-08T17:18:45.120Z,2.92
2023-03-08T17:21:11.412Z,2.76
2023-03-08T17:23:37.781Z,2.80
2023-03-08T17:26:08.451Z,2.66
2023-03-08T17:28:35.001Z,2.70
2023-03-08T17:31:01.833Z,2.48
2023-03-08T17:33:28.530Z,2.60
2023-03-08T17:35:56.231Z,2.47
2023-03-08T17:38:23.008Z,2.34
2023-03-08T17:40:49.303Z,2.30
2023-03-08T17:43:15.698Z,2.37
2023-03-08T17:45:41.994Z,2.18
2023-03-08T17:48:10.189Z,2.21
2023-03-08T17:50:36.915Z,2.30
2023-03-08T17:53:03.343Z,2.23
2023-03-08T17:55:29.755Z,2.23
2023-03-08T17:57:56.056Z,2.37
2023-03-08T18:00:22.684Z,2.51
2023-03-08T18:02:49.275Z,2.29
2023-03-08T18:05:15.624Z,1.97
2023-03-08T18:07:42.158Z,2.04
2023-03-08T18:10:10.910Z,1.94
2023-03-08T18:12:37.280Z,1.87
2023-03-08T18:15:04.420Z,1.77
2023-03-08T18:17:30.779Z,1.92
2023-03-08T18:19:57.130Z,1.98
2023-03-08T18:22:23.558Z,1.86
2023-03-08T18:24:49.876Z,1.82
2023-03-08T18:27:16.221Z,1.81
2023-03-08T18:29:42.652Z,1.78
2023-03-08T18:32:10.030Z,1.75
2023-03-08T18:34:37.179Z,1.79
2023-03-08T18:37:03.545Z,1.69
2023-03-08T18:39:29.909Z,1.72
2023-03-08T18:41:57.973Z,1.74
2023-03-08T18:44:24.395Z,1.76
2023-03-08T18:46:50.853Z,1.64
2023-03-08T18:49:17.265Z,1.71
2023-03-08T18:51:43.809Z,1.64
2023-03-08T18:54:11.534Z,1.80
2023-03-08T18:56:37.872Z,1.84
2023-03-08T18:59:05.762Z,2.10
2023-03-08T19:01:32.193Z,1.78
2023-03-08T19:03:59.264Z,1.51
2023-03-08T19:06:25.715Z,1.59
2023-03-08T19:08:52.343Z,1.53
2023-03-08T19:11:19.783Z,1.79
2023-03-08T19:13:47.111Z,1.66
2023-03-08T19:16:18.050Z,1.40
2023-03-08T19:18:44.696Z,1.68
2023-03-08T19:21:21.329Z,1.74
2023-03-08T19:23:48.405Z,1.73
2023-03-08T19:26:36.094Z,1.79
2023-03-08T19:29:03.945Z,1.48
2023-03-08T19:31:30.468Z,1.50
2023-03-08T19:33:57.187Z,1.57
2023-03-08T19:36:23.506Z,1.54
2023-03-08T19:38:50.064Z,1.54
2023-03-08T19:41:16.392Z,1.47
2023-03-08T19:43:42.838Z,1.48
2023-03-08T19:46:09.556Z,1.53
2023-03-08T19:48:36.606Z,1.60
2023-03-08T19:51:03.034Z,1.62
2023-03-08T19:53:29.425Z,1.68
2023-03-08T19:55:56.000Z,1.67
2023-03-08T19:58:22.355Z,1.69
2023-03-08T20:00:49.085Z,1.30
2023-03-08T20:03:16.578Z,1.51
2023-03-08T20:05:47.300Z,1.27
2023-03-08T20:08:14.136Z,1.20
2023-03-08T20:10:40.653Z,1.39
2023-03-08T20:13:07.223Z,1.34
2023-03-08T20:15:33.618Z,1.42
2023-03-08T20:18:00.083Z,1.42
2023-03-08T20:20:26.437Z,1.42
2023-03-08T20:22:52.774Z,1.36
2023-03-08T20:25:19.262Z,1.45
2023-03-08T20:27:45.580Z,1.57
2023-03-08T20:30:12.558Z,1.62
2023-03-08T20:32:39.328Z,1.59
2023-03-08T20:35:06.977Z,1.47
2023-03-08T20:37:33.428Z,1.45
2023-03-08T20:39:59.947Z,1.53
2023-03-08T20:42:26.612Z,1.55
2023-03-08T20:44:53.036Z,1.65
2023-03-08T20:47:19.367Z,1.53
2023-03-08T20:49:45.752Z,1.60
2023-03-08T20:52:12.129Z,1.67
2023-03-08T20:54:38.581Z,1.36
2023-03-08T20:57:05.635Z,1.55
2023-03-08T20:59:32.090Z,1.37
2023-03-08T21:01:58.552Z,1.42
2023-03-08T21:04:26.648Z,1.62
2023-03-08T21:06:53.390Z,1.64
2023-03-08T21:09:20.117Z,1.66
2023-03-08T21:11:46.507Z,1.48
2023-03-08T21:14:12.931Z,1.43
2023-03-08T21:16:39.361Z,1.19
2023-03-08T21:19:06.353Z,1.45
2023-03-08T21:21:39.973Z,1.47
2023-03-08T21:24:08.653Z,1.58
2023-03-08T21:26:35.370Z,1.55
2023-03-08T21:29:03.724Z,1.46
2023-03-08T21:31:32.295Z,1.33
2023-03-08T21:34:00.980Z,1.62
2023-03-08T21:36:27.428Z,1.68
2023-03-08T21:38:54.630Z,1.79
2023-03-08T21:41:25.422Z,1.62
2023-03-08T21:43:52.029Z,1.58
2023-03-08T21:46:18.683Z,1.49
2023-03-08T21:48:45.396Z,1.69
2023-03-08T21:51:11.891Z,1.61
2023-03-08T21:53:38.417Z,1.34
2023-03-08T21:56:08.530Z,1.50
2023-03-08T21:58:35.283Z,1.50
2023-03-08T22:01:02.190Z,1.54
2023-03-08T22:03:30.701Z,1.58
2023-03-08T22:05:57.876Z,1.61
2023-03-08T22:08:26.913Z,1.79
2023-03-08T22:10:55.564Z,1.76
2023-03-08T22:13:21.919Z,1.92
2023-03-08T22:15:48.412Z,1.79
2023-03-08T22:18:14.963Z,1.51
2023-03-08T22:20:41.398Z,1.48
2023-03-08T22:23:07.702Z,1.46
2023-03-08T22:25:34.352Z,1.76
2023-03-08T22:28:00.834Z,1.68
2023-03-08T22:30:27.143Z,1.63
2023-03-08T22:32:54.097Z,1.57
2023-03-08T22:35:22.077Z,1.71
2023-03-08T22:37:48.577Z,1.65
2023-03-08T22:40:15.280Z,1.50
2023-03-08T22:42:41.678Z,1.63
2023-03-08T22:45:08.567Z,1.53
2023-03-08T22:47:34.918Z,1.52
2023-03-08T22:50:01.364Z,1.37
2023-03-08T22:52:27.766Z,1.59
2023-03-08T22:54:54.063Z,1.52
2023-03-08T22:57:20.366Z,1.54
2023-03-08T22:59:46.933Z,1.33
2023-03-08T23:02:13.749Z,1.11
2023-03-08T23:04:40.580Z,1.47
2023-03-08T23:07:07.528Z,1.40
2023-03-08T23:09:33.981Z,0.96
2023-03-08T23:12:02.756Z,1.03
2023-03-08T23:14:29.070Z,1.23
2023-03-08T23:16:55.440Z,0.95
2023-03-08T23:19:21.839Z,1.41
2023-03-08T23:21:48.444Z,0.88
2023-03-08T23:24:15.599Z,0.85
2023-03-08T23:26:43.253Z,0.89
2023-03-08T23:29:09.794Z,1.02
2023-03-08T23:31:37.154Z,1.12
2023-03-08T23:34:04.863Z,1.12
2023-03-08T23:36:32.822Z,1.11
2023-03-08T23:39:01.796Z,1.03
2023-03-08T23:41:28.372Z,1.28
2023-03-08T23:43:58.748Z,1.29
2023-03-08T23:46:25.230Z,1.17
2023-03-08T23:48:54.787Z,1.08
2023-03-08T23:51:21.804Z,0.99
2023-03-08T23:53:49.676Z,1.23
2023-03-08T23:56:17.850Z,1.05
2023-03-08T23:58:44.136Z,1.17
